北京 の空港の天気 - METARとTAF

北京首都国際空港 ( ZBAA / PEK ) - 中国 北京市
飛行場実況気象(Metar)
観測時間04/25 22:30 CST (04/25 14:30 UTC)
風向・風速南 5m/s
視程10km以上
天気現象
なし
気温19℃
湿度49%
気圧1011hPa
METARZBAA 251430Z 19005MPS CAVOK 19/08 Q1011 NOSIG
過去の天気等 Google飛行場航空写真 Wunderground天気予報

過去48時間のMETAR

飛行場予報(TAF)
発表時間: 4/25 17:20 CST (4/25 09:20 UTC)
予報対象時間: 25日20時 CST ~ 26日20時 CST
風向・風速北 4m/s
視程10km以上
なし
TAF ZBAA 250920Z 2512/2612 36004MPS CAVOK TX26/2607Z TN10/2521Z